Rockwell, NC (28138)

3:11 AM EST on February 08, 2016 (GMT -0500)
RockGrove | | Change Station
CLOSE
Current Station
Personal Weather Station
Location: Salisbury, NC
Elevation: 856 ft
Nearby Weather Stations

Elev 856 ft 35.55 °N, 80.48 °W | Updated 57 seconds ago

Clear
Clear
31.4 °F
Feels Like 31 °F
N
0.0
Wind Variable Wind from NE
Gusts 1.0 mph

Today
High -- | Low -- °F
--% Chance of Precip.
Yesterday
High -- | Low -- °F
Precip. -- in
Pressure 29.83 in
Visibility 10.0 miles
Clouds Clear
Windchill 31 °F
Dew Point 26 °F
Humidity 79%
Rainfall 0.00 in
Snow Depth Not available.
7:15 AM 5:56 PM
Waning Crescent, 0% visible
METAR KRUQ 080755Z AUTO 00000KT 10SM CLR M03/M04 A2983 RMK AO2 T10311044
Pressure 29.83 in
Visibility 10.0 miles
Clouds Clear
Windchill 31 °F
Dew Point 26 °F
Humidity 79%
Rainfall 0.00 in
Snow Depth Not available.
7:15 AM 5:56 PM
Waning Crescent, 0% visible
METAR KRUQ 080755Z AUTO 00000KT 10SM CLR M03/M04 A2983 RMK AO2 T10311044

10-Day Weather Forecast

Almanac

Astronomy

Feb. 08, 2016 Rise Set
Actual Time
Civil Twilight
Nautical Twilight
Astronomical Twilight
Moon
Length of Visible Light
Length of Day
Tomorrow will be .
, % of the Moon is Illuminated

Today's Extremes

State Highs State Lows

Community

WunderPhotos

Upload Photos

1,891,412 photos uploaded!

WunderBlog® & News

Nearby

Air Quality

  Air Quality AQ Index Pollutant
Not available.

Snow Depth

Station Depth Elevation

Earthquake Activity

City Distance Mag. Time & Date
Minimum magnitude displayed is 2.5.

Coastal Water Temperatures

Place Temperature

Stations

Nearby Weather Stations

Station Location Temp. Windchill Dew Point Humidity Wind Precip. Elev Updated Type
                   

Watches & Warnings

There are currently no watches in effect.